createdAt,value
2023-04-07T00:00:04.365Z,10.00
2023-04-07T00:02:44.381Z,13.60
2023-04-07T00:05:13.274Z,10.20
2023-04-07T00:07:52.420Z,13.80
2023-04-07T00:10:25.503Z,12.00
2023-04-07T00:12:57.112Z,10.40
2023-04-07T00:15:25.330Z,11.50
2023-04-07T00:17:58.441Z,11.80
2023-04-07T00:20:28.308Z,9.20
2023-04-07T00:22:56.626Z,13.00
2023-04-07T00:25:26.033Z,11.00
2023-04-07T00:27:54.275Z,13.00
2023-04-07T00:30:25.456Z,10.90
2023-04-07T00:32:53.761Z,10.50
2023-04-07T00:35:22.198Z,10.80
2023-04-07T00:37:50.420Z,11.80
2023-04-07T00:40:18.733Z,12.70
2023-04-07T00:42:47.000Z,11.00
2023-04-07T00:45:15.848Z,9.30
2023-04-07T00:47:44.298Z,9.30
2023-04-07T00:50:12.686Z,11.10
2023-04-07T00:52:41.228Z,9.80
2023-04-07T00:55:10.508Z,10.70
2023-04-07T00:57:39.277Z,10.70
2023-04-07T01:00:09.994Z,11.50
2023-04-07T01:02:43.294Z,10.30
2023-04-07T01:05:11.862Z,10.10
2023-04-07T01:07:50.372Z,10.70
2023-04-07T01:10:21.475Z,10.10
2023-04-07T01:12:59.935Z,8.90
2023-04-07T01:15:28.964Z,10.30
2023-04-07T01:18:00.130Z,9.60
2023-04-07T01:20:28.541Z,9.60
2023-04-07T01:23:02.545Z,11.40
2023-04-07T01:25:42.193Z,9.50
2023-04-07T01:28:14.244Z,9.50
2023-04-07T01:30:43.594Z,15.50
2023-04-07T01:33:12.964Z,10.40
2023-04-07T01:35:41.922Z,9.10
2023-04-07T01:38:10.065Z,7.20
2023-04-07T01:40:38.334Z,9.10
2023-04-07T01:43:06.932Z,8.60
2023-04-07T01:45:36.495Z,8.90
2023-04-07T01:48:05.856Z,8.60
2023-04-07T01:50:34.071Z,9.20
2023-04-07T01:53:03.417Z,9.40
2023-04-07T01:55:32.012Z,9.90
2023-04-07T01:58:07.989Z,10.00
2023-04-07T02:00:45.452Z,8.50
2023-04-07T02:03:23.739Z,10.10
2023-04-07T02:05:54.809Z,8.20
2023-04-07T02:08:25.228Z,7.80
2023-04-07T02:10:55.756Z,9.70
2023-04-07T02:13:26.507Z,6.30
2023-04-07T02:15:54.746Z,7.20
2023-04-07T02:18:23.396Z,9.00
2023-04-07T02:20:51.900Z,6.70
2023-04-07T02:23:20.616Z,7.60
2023-04-07T02:25:48.959Z,7.70
2023-04-07T02:28:17.345Z,9.20
2023-04-07T02:30:49.686Z,9.70
2023-04-07T02:33:18.583Z,9.30
2023-04-07T02:35:46.988Z,9.10
2023-04-07T02:38:18.306Z,7.70
2023-04-07T02:40:47.436Z,8.70
2023-04-07T02:43:17.818Z,8.90
2023-04-07T02:45:46.364Z,9.00
2023-04-07T02:48:14.564Z,8.10
2023-04-07T02:50:42.815Z,8.50
2023-04-07T02:53:11.721Z,6.60
2023-04-07T02:55:42.624Z,10.80
2023-04-07T02:58:11.350Z,8.30
2023-04-07T03:00:43.847Z,9.10
2023-04-07T03:03:23.334Z,7.20
2023-04-07T03:06:00.344Z,7.60
2023-04-07T03:08:29.476Z,7.10
2023-04-07T03:10:58.802Z,8.20
2023-04-07T03:13:31.096Z,9.60
2023-04-07T03:15:59.369Z,9.30
2023-04-07T03:18:33.989Z,10.00
2023-04-07T03:21:02.406Z,9.20
2023-04-07T03:23:36.469Z,8.20
2023-04-07T03:26:04.789Z,9.30
2023-04-07T03:28:35.395Z,9.80
2023-04-07T03:31:04.857Z,9.60
2023-04-07T03:33:33.148Z,10.40
2023-04-07T03:36:01.979Z,11.10
2023-04-07T03:38:30.529Z,9.70
2023-04-07T03:41:01.791Z,8.80
2023-04-07T03:43:31.174Z,8.80
2023-04-07T03:45:59.586Z,8.80
2023-04-07T03:48:29.279Z,10.00
2023-04-07T03:51:03.054Z,8.10
2023-04-07T03:53:33.273Z,9.70
2023-04-07T03:56:05.226Z,8.60
2023-04-07T03:58:53.606Z,8.00
2023-04-07T04:01:28.197Z,8.00
2023-04-07T04:03:59.299Z,8.10
2023-04-07T04:06:37.229Z,8.30
2023-04-07T04:09:15.729Z,8.20
2023-04-07T04:11:47.169Z,9.00
2023-04-07T04:14:16.081Z,10.60
2023-04-07T04:16:49.626Z,8.70
2023-04-07T04:19:30.169Z,8.30
2023-04-07T04:22:01.759Z,8.00
2023-04-07T04:24:33.970Z,10.10
2023-04-07T04:27:03.636Z,8.30
2023-04-07T04:29:38.790Z,8.40
2023-04-07T04:32:07.399Z,6.70
2023-04-07T04:34:36.728Z,8.90
2023-04-07T04:37:06.160Z,7.20
2023-04-07T04:39:35.756Z,7.40
2023-04-07T04:42:05.732Z,8.80
2023-04-07T04:44:37.488Z,8.40
2023-04-07T04:47:09.418Z,7.20
2023-04-07T04:49:39.810Z,8.80
2023-04-07T04:52:08.799Z,8.10
2023-04-07T04:54:41.977Z,11.00
2023-04-07T04:57:10.720Z,8.80
2023-04-07T04:59:42.703Z,7.60
2023-04-07T05:02:11.571Z,6.90
2023-04-07T05:04:40.036Z,7.90
2023-04-07T05:07:21.010Z,9.60
2023-04-07T05:09:50.890Z,8.40
2023-04-07T05:12:19.129Z,7.10
2023-04-07T05:14:50.793Z,8.00
2023-04-07T05:17:21.118Z,7.00
2023-04-07T05:19:49.665Z,8.70
2023-04-07T05:22:30.944Z,6.10
2023-04-07T05:24:59.084Z,9.20
2023-04-07T05:27:27.691Z,7.50
2023-04-07T05:30:02.690Z,9.40
2023-04-07T05:32:34.066Z,7.20
2023-04-07T05:35:07.297Z,7.80
2023-04-07T05:37:41.067Z,8.50
2023-04-07T05:40:09.817Z,9.50
2023-04-07T05:42:38.009Z,8.70
2023-04-07T05:45:06.786Z,8.90
2023-04-07T05:47:35.605Z,8.70
2023-04-07T05:50:05.415Z,10.00
2023-04-07T05:52:34.930Z,8.80
2023-04-07T05:55:11.750Z,11.10
2023-04-07T05:57:40.763Z,17.70
2023-04-07T06:00:09.768Z,17.50
2023-04-07T06:02:44.488Z,18.90
2023-04-07T06:05:17.743Z,26.10
2023-04-07T06:07:46.622Z,20.00
2023-04-07T06:10:16.191Z,15.50
2023-04-07T06:12:44.882Z,10.90
2023-04-07T06:15:13.196Z,11.80
2023-04-07T06:17:41.522Z,17.70
2023-04-07T06:20:12.123Z,11.50
2023-04-07T06:22:41.677Z,23.80
2023-04-07T06:25:10.864Z,13.40
2023-04-07T06:27:39.708Z,14.70
2023-04-07T06:30:09.822Z,13.40
2023-04-07T06:32:38.346Z,12.70
2023-04-07T06:35:06.781Z,9.90
2023-04-07T06:37:40.587Z,10.60
2023-04-07T06:40:09.082Z,14.00
2023-04-07T06:42:37.268Z,11.90
2023-04-07T06:45:28.914Z,12.90
2023-04-07T06:47:57.323Z,11.70
2023-04-07T06:50:26.344Z,12.60
2023-04-07T06:52:54.632Z,11.70
2023-04-07T06:55:24.333Z,11.50
2023-04-07T06:57:53.446Z,10.90
2023-04-07T07:00:23.220Z,12.90
2023-04-07T07:03:08.903Z,10.60
2023-04-07T07:05:37.638Z,15.40
2023-04-07T07:08:06.249Z,12.20
2023-04-07T07:10:35.742Z,11.50
2023-04-07T07:13:04.915Z,10.10
2023-04-07T07:15:33.555Z,11.90
2023-04-07T07:18:01.782Z,10.60
2023-04-07T07:20:30.648Z,10.80
2023-04-07T07:22:59.892Z,12.80
2023-04-07T07:25:28.080Z,12.60
2023-04-07T07:27:56.437Z,10.50
2023-04-07T07:30:25.152Z,10.90
2023-04-07T07:32:57.700Z,12.30
2023-04-07T07:35:26.206Z,11.20
2023-04-07T07:37:55.231Z,117.50
2023-04-07T07:40:25.728Z,32.30
2023-04-07T07:42:56.905Z,19.90
2023-04-07T07:45:25.397Z,16.80
2023-04-07T07:47:53.578Z,238.50
2023-04-07T07:50:22.655Z,310.50
2023-04-07T07:52:52.532Z,306.10
2023-04-07T07:55:23.119Z,124.60
2023-04-07T07:57:51.212Z,95.80
2023-04-07T08:00:19.581Z,225.20
2023-04-07T08:02:48.836Z,253.00
2023-04-07T08:05:17.264Z,175.10
2023-04-07T08:07:47.103Z,62.40
2023-04-07T08:10:15.707Z,16.80
2023-04-07T08:12:46.986Z,15.00
2023-04-07T08:15:15.906Z,14.90
2023-04-07T08:17:45.945Z,13.00
2023-04-07T08:20:16.903Z,14.20
2023-04-07T08:22:46.279Z,13.70
2023-04-07T08:25:16.316Z,12.80
2023-04-07T08:27:53.305Z,14.40
2023-04-07T08:30:24.051Z,13.70
2023-04-07T08:33:08.496Z,15.60
2023-04-07T08:35:36.853Z,16.20
2023-04-07T08:38:05.947Z,13.00
2023-04-07T08:40:34.253Z,13.90
2023-04-07T08:43:08.592Z,14.10
2023-04-07T08:45:41.635Z,20.40
2023-04-07T08:48:16.164Z,20.80
2023-04-07T08:50:47.151Z,16.40
2023-04-07T08:53:15.709Z,17.50
2023-04-07T08:58:50.453Z,14.80
2023-04-07T09:01:20.694Z,20.00
2023-04-07T09:03:50.980Z,22.00
2023-04-07T09:06:19.475Z,19.00
2023-04-07T09:08:47.556Z,17.70
2023-04-07T09:11:16.573Z,19.90
2023-04-07T09:13:45.010Z,22.60
2023-04-07T09:16:14.283Z,22.70
2023-04-07T09:19:00.432Z,29.50
2023-04-07T09:21:49.989Z,24.30
2023-04-07T09:24:26.430Z,16.60
2023-04-07T09:27:14.587Z,44.00
2023-04-07T09:29:46.737Z,21.70
2023-04-07T09:32:34.804Z,19.40
2023-04-07T09:35:03.476Z,16.50
2023-04-07T09:37:34.966Z,16.20
2023-04-07T09:40:03.409Z,16.80
2023-04-07T09:42:36.173Z,16.30
2023-04-07T09:45:05.319Z,16.40
2023-04-07T09:47:35.805Z,18.50
2023-04-07T09:50:07.319Z,26.80
2023-04-07T09:52:48.474Z,22.60
2023-04-07T09:55:23.042Z,17.70
2023-04-07T09:57:52.806Z,16.60
2023-04-07T10:00:21.688Z,16.40
2023-04-07T10:02:54.719Z,119.90
2023-04-07T10:05:25.451Z,19.10
2023-04-07T10:07:56.616Z,20.60
2023-04-07T10:10:29.133Z,17.50
2023-04-07T10:12:59.712Z,17.90
2023-04-07T10:15:28.551Z,17.70
2023-04-07T10:17:57.431Z,17.00
2023-04-07T10:20:26.338Z,16.60
2023-04-07T10:22:54.769Z,14.10
2023-04-07T10:25:23.532Z,18.60
2023-04-07T10:28:05.980Z,21.60
2023-04-07T10:30:35.529Z,14.90
2023-04-07T10:33:42.350Z,17.90
2023-04-07T10:36:11.511Z,15.70
2023-04-07T10:41:43.600Z,16.60
2023-04-07T10:44:32.522Z,16.60
2023-04-07T10:47:01.007Z,18.50
2023-04-07T10:49:29.414Z,17.30
2023-04-07T10:52:20.246Z,13.90
2023-04-07T10:54:48.458Z,16.00
2023-04-07T10:57:17.151Z,19.30
2023-04-07T11:00:06.085Z,18.10
2023-04-07T11:02:35.490Z,24.60
2023-04-07T11:05:04.285Z,22.30
2023-04-07T11:07:46.263Z,21.20
2023-04-07T11:10:16.483Z,19.70
2023-04-07T11:12:58.757Z,18.50
2023-04-07T11:15:27.178Z,16.60
2023-04-07T11:18:13.747Z,17.40
2023-04-07T11:20:49.320Z,31.40
2023-04-07T11:23:18.618Z,98.10
2023-04-07T11:25:48.912Z,80.60
2023-04-07T11:28:17.526Z,86.00
2023-04-07T11:30:53.523Z,58.20
2023-04-07T11:33:25.892Z,74.80
2023-04-07T11:36:01.173Z,104.00
2023-04-07T11:38:38.502Z,28.60
2023-04-07T11:41:10.801Z,31.30
2023-04-07T11:43:42.344Z,25.60
2023-04-07T11:46:12.193Z,21.00
2023-04-07T11:48:47.579Z,21.80
2023-04-07T11:51:24.056Z,21.10
2023-04-07T11:53:56.960Z,19.40
2023-04-07T11:56:25.534Z,14.30
2023-04-07T11:58:54.513Z,21.00
2023-04-07T12:01:25.003Z,19.20
2023-04-07T12:03:59.385Z,21.30
2023-04-07T12:06:38.529Z,30.10
2023-04-07T12:09:08.253Z,31.10
2023-04-07T12:11:37.295Z,22.60
2023-04-07T12:14:06.896Z,20.70
2023-04-07T12:16:40.277Z,22.10
2023-04-07T12:19:09.092Z,17.50
2023-04-07T12:21:41.912Z,16.30
2023-04-07T12:24:10.136Z,14.90
2023-04-07T12:26:38.860Z,14.20
2023-04-07T12:29:08.394Z,16.40
2023-04-07T12:31:36.697Z,16.40
2023-04-07T12:34:04.826Z,14.00
2023-04-07T12:36:33.457Z,17.70
2023-04-07T12:39:01.686Z,16.40
2023-04-07T12:41:30.038Z,16.00
2023-04-07T12:43:58.268Z,17.60
2023-04-07T12:46:27.078Z,15.00
2023-04-07T12:48:55.674Z,15.70
2023-04-07T12:51:23.868Z,15.40
2023-04-07T12:53:54.386Z,18.70
2023-04-07T12:56:23.013Z,15.70
2023-04-07T12:58:52.857Z,13.60
2023-04-07T13:01:21.853Z,14.30
2023-04-07T13:03:51.535Z,14.10
2023-04-07T13:06:20.843Z,16.30
2023-04-07T13:08:49.704Z,14.50
2023-04-07T13:11:18.158Z,13.70
2023-04-07T13:13:49.568Z,12.80
2023-04-07T13:16:18.677Z,16.20
2023-04-07T13:18:46.930Z,12.50
2023-04-07T13:23:51.926Z,14.00
2023-04-07T13:26:20.075Z,15.80
2023-04-07T13:28:48.790Z,14.60
2023-04-07T13:31:18.202Z,12.50
2023-04-07T13:33:47.707Z,13.80
2023-04-07T13:36:16.225Z,14.20
2023-04-07T13:38:45.998Z,15.20
2023-04-07T13:41:14.138Z,15.30
2023-04-07T13:43:42.435Z,13.50
2023-04-07T13:46:27.284Z,13.90
2023-04-07T13:48:56.906Z,13.30
2023-04-07T13:51:25.299Z,12.90
2023-04-07T13:53:53.454Z,10.70
2023-04-07T13:56:22.600Z,13.00
2023-04-07T13:58:51.659Z,11.40
2023-04-07T14:01:20.019Z,11.20
2023-04-07T14:03:49.905Z,12.20
2023-04-07T14:06:18.544Z,11.60
2023-04-07T14:08:47.648Z,13.40
2023-04-07T14:11:19.276Z,15.10
2023-04-07T14:13:49.040Z,9.10
2023-04-07T14:16:17.894Z,13.60
2023-04-07T14:21:37.397Z,11.80
2023-04-07T14:24:06.314Z,11.50
2023-04-07T14:26:34.475Z,11.40
2023-04-07T14:29:03.187Z,9.00
2023-04-07T14:31:32.181Z,14.50
2023-04-07T14:34:00.370Z,10.30
2023-04-07T14:36:28.647Z,15.70
2023-04-07T14:38:57.250Z,11.50
2023-04-07T14:41:25.580Z,11.20
2023-04-07T14:43:56.607Z,10.40
2023-04-07T14:46:25.430Z,10.60
2023-04-07T14:48:53.704Z,12.90
2023-04-07T14:51:22.191Z,12.00
2023-04-07T14:53:56.888Z,13.40
2023-04-07T14:56:25.284Z,13.50
2023-04-07T14:58:55.790Z,10.40
2023-04-07T15:01:23.949Z,11.60
2023-04-07T15:03:54.284Z,13.30
2023-04-07T15:06:23.775Z,11.30
2023-04-07T15:08:54.046Z,13.50
2023-04-07T15:11:22.468Z,15.30
2023-04-07T15:13:51.222Z,15.00
2023-04-07T15:16:21.620Z,18.80
2023-04-07T15:18:50.185Z,14.80
2023-04-07T15:21:18.815Z,9.50
2023-04-07T15:23:47.526Z,13.80
2023-04-07T15:26:16.502Z,11.90
2023-04-07T15:28:52.377Z,11.30
2023-04-07T15:31:22.412Z,13.70
2023-04-07T15:33:51.935Z,13.10
2023-04-07T15:36:20.156Z,12.30
2023-04-07T15:38:49.001Z,12.10
2023-04-07T15:41:17.502Z,11.20
2023-04-07T15:43:46.575Z,8.80
2023-04-07T15:46:15.790Z,11.60
2023-04-07T15:48:44.221Z,9.60
2023-04-07T15:51:12.573Z,9.80
2023-04-07T15:53:40.841Z,10.00
2023-04-07T15:56:09.376Z,10.20
2023-04-07T15:58:39.169Z,10.50
2023-04-07T16:01:07.291Z,11.50
2023-04-07T16:03:36.067Z,10.00
2023-04-07T16:06:04.831Z,9.10
2023-04-07T16:08:33.031Z,9.60
2023-04-07T16:11:03.685Z,11.60
2023-04-07T16:13:32.293Z,12.80
2023-04-07T16:16:00.562Z,12.00
2023-04-07T16:18:30.956Z,10.60
2023-04-07T16:20:59.121Z,9.50
2023-04-07T16:23:27.720Z,16.60
2023-04-07T16:25:56.329Z,24.90
2023-04-07T16:28:24.609Z,26.20
2023-04-07T16:30:54.199Z,28.60
2023-04-07T16:33:25.930Z,25.90
2023-04-07T16:35:54.511Z,32.90
2023-04-07T16:38:27.660Z,47.70
2023-04-07T16:41:03.806Z,35.50
2023-04-07T16:43:35.770Z,23.00
2023-04-07T16:46:06.381Z,38.90
2023-04-07T16:48:35.859Z,45.20
2023-04-07T16:51:06.341Z,42.30
2023-04-07T16:53:35.073Z,45.80
2023-04-07T16:56:04.707Z,46.60
2023-04-07T16:58:33.617Z,49.80
2023-04-07T17:01:01.786Z,49.00
2023-04-07T17:03:32.928Z,54.70
2023-04-07T17:06:05.522Z,57.80
2023-04-07T17:08:38.429Z,62.50
2023-04-07T17:11:07.781Z,55.10
2023-04-07T17:13:36.776Z,55.80
2023-04-07T17:16:07.772Z,43.40
2023-04-07T17:18:37.236Z,34.90
2023-04-07T17:21:05.655Z,28.10
2023-04-07T17:23:34.696Z,23.80
2023-04-07T17:26:02.990Z,20.80
2023-04-07T17:28:31.233Z,30.00
2023-04-07T17:31:00.666Z,34.60
2023-04-07T17:33:31.391Z,30.30
2023-04-07T17:36:03.253Z,30.30
2023-04-07T17:38:32.226Z,30.00
2023-04-07T17:41:01.905Z,35.00
2023-04-07T17:43:34.676Z,24.40
2023-04-07T17:46:04.645Z,30.10
2023-04-07T17:48:33.551Z,33.80
2023-04-07T17:51:01.835Z,37.60
2023-04-07T17:53:31.344Z,37.20
2023-04-07T17:56:01.098Z,28.00
2023-04-07T17:58:29.525Z,31.20
2023-04-07T18:00:58.117Z,29.20
2023-04-07T18:03:27.011Z,27.20
2023-04-07T18:05:56.054Z,24.80
2023-04-07T18:08:25.100Z,26.00
2023-04-07T18:11:08.161Z,23.80
2023-04-07T18:13:38.770Z,20.80
2023-04-07T18:16:09.661Z,23.20
2023-04-07T18:18:43.356Z,24.50
2023-04-07T18:21:11.646Z,25.50
2023-04-07T18:23:39.767Z,28.00
2023-04-07T18:26:08.441Z,22.20
2023-04-07T18:28:36.610Z,23.10
2023-04-07T18:31:07.945Z,19.90
2023-04-07T18:33:37.333Z,23.20
2023-04-07T18:36:07.872Z,19.20
2023-04-07T18:38:39.128Z,13.10
2023-04-07T18:41:07.289Z,18.20
2023-04-07T18:43:37.112Z,16.50
2023-04-07T18:46:06.162Z,16.30
2023-04-07T18:48:36.766Z,19.00
2023-04-07T18:51:05.757Z,22.20
2023-04-07T18:53:34.030Z,17.10
2023-04-07T18:56:02.905Z,13.40
2023-04-07T18:58:31.948Z,15.30
2023-04-07T19:01:00.667Z,18.50
2023-04-07T19:03:29.682Z,17.90
2023-04-07T19:05:59.059Z,18.10
2023-04-07T19:08:28.036Z,21.20
2023-04-07T19:10:56.988Z,15.50
2023-04-07T19:13:25.088Z,24.10
2023-04-07T19:15:53.764Z,22.80
2023-04-07T19:18:22.113Z,17.30
2023-04-07T19:20:50.413Z,23.30
2023-04-07T19:23:19.141Z,24.00
2023-04-07T19:25:48.039Z,26.30
2023-04-07T19:28:19.953Z,33.10
2023-04-07T19:30:49.302Z,28.40
2023-04-07T19:33:17.779Z,27.90
2023-04-07T19:35:47.436Z,27.00
2023-04-07T19:38:16.511Z,27.20
2023-04-07T19:40:44.932Z,22.30
2023-04-07T19:43:14.504Z,22.90
2023-04-07T19:45:42.843Z,28.60
2023-04-07T19:48:13.542Z,23.10
2023-04-07T19:50:44.049Z,29.00
2023-04-07T19:53:16.340Z,25.50
2023-04-07T19:55:46.147Z,27.40
2023-04-07T19:58:17.246Z,22.90
2023-04-07T20:00:51.002Z,23.50
2023-04-07T20:03:20.573Z,23.40
2023-04-07T20:05:49.659Z,28.90
2023-04-07T20:08:19.275Z,18.10
2023-04-07T20:10:47.680Z,26.30
2023-04-07T20:13:21.790Z,27.50
2023-04-07T20:15:50.116Z,23.40
2023-04-07T20:18:19.272Z,20.20
2023-04-07T20:20:51.008Z,21.60
2023-04-07T20:23:22.382Z,22.30
2023-04-07T20:25:51.779Z,21.20
2023-04-07T20:28:21.607Z,22.60
2023-04-07T20:30:51.162Z,21.40
2023-04-07T20:33:21.764Z,24.30
2023-04-07T20:35:50.733Z,25.30
2023-04-07T20:38:19.381Z,20.80
2023-04-07T20:40:53.849Z,23.50
2023-04-07T20:43:23.793Z,22.30
2023-04-07T20:45:52.790Z,19.80
2023-04-07T20:48:24.566Z,19.00
2023-04-07T20:50:53.091Z,17.20
2023-04-07T20:53:25.080Z,16.10
2023-04-07T20:55:53.928Z,17.80
2023-04-07T20:58:22.114Z,22.60
2023-04-07T21:00:55.339Z,25.30
2023-04-07T21:03:25.476Z,17.10
2023-04-07T21:05:54.355Z,17.20
2023-04-07T21:08:24.739Z,19.80
2023-04-07T21:10:53.484Z,15.70
2023-04-07T21:13:23.233Z,19.80
2023-04-07T21:15:51.744Z,17.70
2023-04-07T21:18:21.337Z,17.40
2023-04-07T21:20:49.851Z,19.40
2023-04-07T21:23:18.250Z,23.00
2023-04-07T21:25:46.560Z,17.70
2023-04-07T21:28:16.974Z,23.70
2023-04-07T21:30:45.910Z,17.10
2023-04-07T21:33:15.191Z,20.10
2023-04-07T21:35:44.559Z,18.70
2023-04-07T21:38:12.917Z,17.90
2023-04-07T21:40:42.160Z,17.10
2023-04-07T21:43:10.511Z,17.70
2023-04-07T21:45:41.084Z,21.50
2023-04-07T21:48:09.611Z,20.60
2023-04-07T21:50:38.172Z,21.10
2023-04-07T21:53:07.634Z,17.10
2023-04-07T21:55:36.720Z,19.00
2023-04-07T21:58:04.870Z,14.70
2023-04-07T22:00:33.839Z,16.40
2023-04-07T22:03:02.806Z,18.70
2023-04-07T22:05:31.978Z,17.30
2023-04-07T22:08:01.168Z,17.90
2023-04-07T22:10:29.694Z,18.50
2023-04-07T22:12:58.407Z,17.30
2023-04-07T22:15:26.572Z,19.40
2023-04-07T22:17:54.885Z,16.70
2023-04-07T22:20:23.541Z,15.30
2023-04-07T22:22:51.774Z,20.70
2023-04-07T22:25:20.017Z,18.70
2023-04-07T22:27:48.172Z,19.30
2023-04-07T22:30:16.747Z,19.90
2023-04-07T22:32:48.382Z,19.20
2023-04-07T22:35:17.125Z,13.90
2023-04-07T22:37:45.568Z,25.30
2023-04-07T22:40:13.890Z,15.30
2023-04-07T22:42:42.343Z,19.00
2023-04-07T22:45:11.686Z,14.80
2023-04-07T22:47:40.570Z,20.90
2023-04-07T22:52:43.050Z,18.50
2023-04-07T22:55:11.655Z,21.00
2023-04-07T22:59:20.602Z,23.80
2023-04-07T23:01:48.801Z,24.60
2023-04-07T23:04:17.296Z,21.40
2023-04-07T23:06:45.583Z,24.70
2023-04-07T23:09:13.989Z,19.40
2023-04-07T23:11:42.888Z,25.40
2023-04-07T23:14:11.720Z,20.60
2023-04-07T23:16:43.585Z,15.90
2023-04-07T23:19:15.188Z,17.20
2023-04-07T23:21:43.476Z,19.00
2023-04-07T23:24:11.560Z,16.30
2023-04-07T23:26:41.139Z,19.40
2023-04-07T23:29:13.420Z,19.20
2023-04-07T23:31:42.454Z,19.00
2023-04-07T23:34:10.788Z,20.30
2023-04-07T23:36:39.768Z,17.10
2023-04-07T23:39:08.340Z,17.10
2023-04-07T23:41:37.045Z,20.00
2023-04-07T23:44:05.773Z,18.00
2023-04-07T23:46:34.448Z,20.90
2023-04-07T23:49:03.879Z,18.80
2023-04-07T23:51:32.221Z,22.10
2023-04-07T23:54:00.561Z,19.30
2023-04-07T23:56:29.124Z,21.90
2023-04-07T23:59:04.761Z,23.70
